sensor_id;sensor_type;location;lat;lon;timestamp;pressure;altitude;pressure_sealevel;temperature;humidity
17855;BME280;9053;53.358;6.382;2023-02-13T00:00:31;103829.66;;;8.81;92.02
17855;BME280;9053;53.358;6.382;2023-02-13T00:03:03;103829.94;;;8.84;91.93
17855;BME280;9053;53.358;6.382;2023-02-13T00:05:35;103825.59;;;8.85;91.85
17855;BME280;9053;53.358;6.382;2023-02-13T00:08:05;103822.97;;;8.85;91.74
17855;BME280;9053;53.358;6.382;2023-02-13T00:10:35;103827.44;;;8.86;91.63
17855;BME280;9053;53.358;6.382;2023-02-13T00:13:05;103825.59;;;8.85;91.53
17855;BME280;9053;53.358;6.382;2023-02-13T00:15:35;103826.53;;;8.85;91.39
17855;BME280;9053;53.358;6.382;2023-02-13T00:18:05;103829.16;;;8.85;91.36
17855;BME280;9053;53.358;6.382;2023-02-13T00:20:37;103820.47;;;8.86;91.31
17855;BME280;9053;53.358;6.382;2023-02-13T00:23:07;103816.94;;;8.86;91.24
17855;BME280;9053;53.358;6.382;2023-02-13T00:25:37;103820.63;;;8.88;91.06
17855;BME280;9053;53.358;6.382;2023-02-13T00:28:07;103811.03;;;8.88;91.00
17855;BME280;9053;53.358;6.382;2023-02-13T00:30:37;103807.50;;;8.88;90.99
17855;BME280;9053;53.358;6.382;2023-02-13T00:33:07;103805.66;;;8.87;90.81
17855;BME280;9053;53.358;6.382;2023-02-13T00:35:39;103803.97;;;8.87;90.87
17855;BME280;9053;53.358;6.382;2023-02-13T00:38:09;103806.44;;;8.86;90.67
17855;BME280;9053;53.358;6.382;2023-02-13T00:40:39;103799.34;;;8.85;90.64
17855;BME280;9053;53.358;6.382;2023-02-13T00:43:09;103803.69;;;8.84;90.53
17855;BME280;9053;53.358;6.382;2023-02-13T00:45:39;103806.44;;;8.86;90.52
17855;BME280;9053;53.358;6.382;2023-02-13T00:48:08;103803.81;;;8.86;90.41
17855;BME280;9053;53.358;6.382;2023-02-13T00:50:41;103800.41;;;8.87;90.46
17855;BME280;9053;53.358;6.382;2023-02-13T00:53:12;103795.03;;;8.85;90.37
17855;BME280;9053;53.358;6.382;2023-02-13T00:55:41;103801.97;;;8.85;90.33
17855;BME280;9053;53.358;6.382;2023-02-13T00:58:11;103791.34;;;8.83;90.17
17855;BME280;9053;53.358;6.382;2023-02-13T01:00:41;103800.91;;;8.83;90.21
17855;BME280;9053;53.358;6.382;2023-02-13T01:03:13;103799.06;;;8.82;90.09
17855;BME280;9053;53.358;6.382;2023-02-13T01:05:46;103801.56;;;8.80;90.01
17855;BME280;9053;53.358;6.382;2023-02-13T01:08:17;103801.56;;;8.80;89.97
17855;BME280;9053;53.358;6.382;2023-02-13T01:10:48;103804.97;;;8.79;89.82
17855;BME280;9053;53.358;6.382;2023-02-13T01:13:18;103804.19;;;8.80;89.79
17855;BME280;9053;53.358;6.382;2023-02-13T01:15:48;103805.91;;;8.80;89.72
17855;BME280;9053;53.358;6.382;2023-02-13T01:18:19;103798.03;;;8.80;89.72
17855;BME280;9053;53.358;6.382;2023-02-13T01:20:58;103797.88;;;8.78;89.66
17855;BME280;9053;53.358;6.382;2023-02-13T01:23:32;103799.72;;;8.79;89.58
17855;BME280;9053;53.358;6.382;2023-02-13T01:26:02;103793.53;;;8.79;89.59
17855;BME280;9053;53.358;6.382;2023-02-13T01:28:33;103798.78;;;8.79;89.50
17855;BME280;9053;53.358;6.382;2023-02-13T01:31:03;103793.53;;;8.79;89.51
17855;BME280;9053;53.358;6.382;2023-02-13T01:33:33;103796.31;;;8.80;89.49
17855;BME280;9053;53.358;6.382;2023-02-13T01:36:10;103796.31;;;8.80;89.46
17855;BME280;9053;53.358;6.382;2023-02-13T01:38:40;103803.41;;;8.81;89.33
17855;BME280;9053;53.358;6.382;2023-02-13T01:41:10;103799.06;;;8.82;89.45
17855;BME280;9053;53.358;6.382;2023-02-13T01:43:51;103799.06;;;8.82;89.43
17855;BME280;9053;53.358;6.382;2023-02-13T01:46:24;103793.81;;;8.82;89.46
17855;BME280;9053;53.358;6.382;2023-02-13T01:48:58;103789.38;;;8.81;89.45
17855;BME280;9053;53.358;6.382;2023-02-13T01:51:33;103792.91;;;8.81;89.44
17855;BME280;9053;53.358;6.382;2023-02-13T01:54:07;103788.56;;;8.82;89.50
17855;BME280;9053;53.358;6.382;2023-02-13T01:56:41;103792.13;;;8.82;89.55
17855;BME280;9053;53.358;6.382;2023-02-13T01:59:16;103786.75;;;8.81;89.67
17855;BME280;9053;53.358;6.382;2023-02-13T02:01:48;103781.22;;;8.78;89.63
17855;BME280;9053;53.358;6.382;2023-02-13T02:04:22;103787.38;;;8.78;89.66
17855;BME280;9053;53.358;6.382;2023-02-13T02:06:57;103783.69;;;8.76;89.59
17855;BME280;9053;53.358;6.382;2023-02-13T02:09:29;103782.94;;;8.77;89.69
17855;BME280;9053;53.358;6.382;2023-02-13T02:12:05;103784.63;;;8.77;89.72
17855;BME280;9053;53.358;6.382;2023-02-13T02:14:38;103784.63;;;8.77;89.75
17855;BME280;9053;53.358;6.382;2023-02-13T02:17:09;103779.38;;;8.77;89.75
17855;BME280;9053;53.358;6.382;2023-02-13T02:19:43;103782.78;;;8.76;89.72
17855;BME280;9053;53.358;6.382;2023-02-13T02:22:33;103785.41;;;8.76;89.83
17855;BME280;9053;53.358;6.382;2023-02-13T02:34:27;103774.50;;;8.71;90.26
17855;BME280;9053;53.358;6.382;2023-02-13T02:37:07;103769.25;;;8.71;90.37
17855;BME280;9053;53.358;6.382;2023-02-13T02:39:47;103766.53;;;8.70;90.40
17855;BME280;9053;53.358;6.382;2023-02-13T02:42:27;103764.81;;;8.70;90.48
17855;BME280;9053;53.358;6.382;2023-02-13T02:45:04;103765.56;;;8.69;90.58
17855;BME280;9053;53.358;6.382;2023-02-13T02:47:41;103764.66;;;8.69;90.64
17855;BME280;9053;53.358;6.382;2023-02-13T02:50:33;103762.84;;;8.68;90.82
17855;BME280;9053;53.358;6.382;2023-02-13T02:53:13;103761.91;;;8.67;90.87
17855;BME280;9053;53.358;6.382;2023-02-13T02:55:49;103755.72;;;8.66;90.86
17855;BME280;9053;53.358;6.382;2023-02-13T02:58:22;103759.16;;;8.65;91.03
17855;BME280;9053;53.358;6.382;2023-02-13T03:01:09;103753.91;;;8.65;91.03
17855;BME280;9053;53.358;6.382;2023-02-13T03:03:55;103756.38;;;8.64;91.17
17855;BME280;9053;53.358;6.382;2023-02-13T03:06:45;103752.84;;;8.63;91.27
17855;BME280;9053;53.358;6.382;2023-02-13T03:09:20;103748.38;;;8.62;91.37
17855;BME280;9053;53.358;6.382;2023-02-13T03:12:05;103746.53;;;8.61;91.41
17855;BME280;9053;53.358;6.382;2023-02-13T03:14:47;103747.31;;;8.60;91.47
17855;BME280;9053;53.358;6.382;2023-02-13T03:17:18;103748.13;;;8.59;91.68
17855;BME280;9053;53.358;6.382;2023-02-13T03:20:19;103753.38;;;8.59;91.58
17855;BME280;9053;53.358;6.382;2023-02-13T03:23:12;103747.06;;;8.57;91.76
17855;BME280;9053;53.358;6.382;2023-02-13T03:26:06;103749.69;;;8.57;91.78
17855;BME280;9053;53.358;6.382;2023-02-13T03:28:46;103748.47;;;8.54;91.78
17855;BME280;9053;53.358;6.382;2023-02-13T03:31:47;103747.94;;;8.48;91.73
17855;BME280;9053;53.358;6.382;2023-02-13T03:34:29;103751.22;;;8.45;91.92
17855;BME280;9053;53.358;6.382;2023-02-13T03:37:26;103744.13;;;8.44;91.97
17855;BME280;9053;53.358;6.382;2023-02-13T03:40:15;103744.25;;;8.45;92.11
17855;BME280;9053;53.358;6.382;2023-02-13T03:42:52;103746.09;;;8.47;92.16
17855;BME280;9053;53.358;6.382;2023-02-13T03:45:26;103745.19;;;8.46;92.25
17855;BME280;9053;53.358;6.382;2023-02-13T03:48:11;103751.34;;;8.47;92.31
17855;BME280;9053;53.358;6.382;2023-02-13T03:50:58;103757.53;;;8.47;92.49
17855;BME280;9053;53.358;6.382;2023-02-13T03:53:31;103750.44;;;8.46;92.53
17855;BME280;9053;53.358;6.382;2023-02-13T03:56:05;103752.50;;;8.40;92.66
17855;BME280;9053;53.358;6.382;2023-02-13T03:58:52;103752.28;;;8.28;92.58
17855;BME280;9053;53.358;6.382;2023-02-13T04:01:37;103747.56;;;8.24;92.71
17855;BME280;9053;53.358;6.382;2023-02-13T04:04:10;103746.78;;;8.25;92.77
17855;BME280;9053;53.358;6.382;2023-02-13T04:06:47;103751.13;;;8.24;92.95
17855;BME280;9053;53.358;6.382;2023-02-13T04:09:18;103757.28;;;8.25;93.03
17855;BME280;9053;53.358;6.382;2023-02-13T04:11:55;103752.19;;;8.27;93.09
17855;BME280;9053;53.358;6.382;2023-02-13T04:14:31;103751.53;;;8.29;93.15
17855;BME280;9053;53.358;6.382;2023-02-13T04:17:05;103747.97;;;8.29;93.30
17855;BME280;9053;53.358;6.382;2023-02-13T04:19:36;103754.00;;;8.28;93.27
17855;BME280;9053;53.358;6.382;2023-02-13T04:22:06;103754.00;;;8.28;93.22
17855;BME280;9053;53.358;6.382;2023-02-13T04:24:36;103736.56;;;8.28;93.39
17855;BME280;9053;53.358;6.382;2023-02-13T04:27:09;103742.88;;;8.30;93.35
17855;BME280;9053;53.358;6.382;2023-02-13T04:29:41;103738.53;;;8.31;93.27
17855;BME280;9053;53.358;6.382;2023-02-13T04:32:12;103741.31;;;8.32;93.33
17855;BME280;9053;53.358;6.382;2023-02-13T04:34:43;103742.22;;;8.33;93.38
17855;BME280;9053;53.358;6.382;2023-02-13T04:37:12;103742.22;;;8.33;93.38
17855;BME280;9053;53.358;6.382;2023-02-13T04:39:42;103745.66;;;8.32;93.44
17855;BME280;9053;53.358;6.382;2023-02-13T04:42:14;103740.50;;;8.33;93.41
17855;BME280;9053;53.358;6.382;2023-02-13T04:44:44;103733.56;;;8.34;93.41
17855;BME280;9053;53.358;6.382;2023-02-13T04:47:14;103737.13;;;8.34;93.42
17855;BME280;9053;53.358;6.382;2023-02-13T04:49:44;103732.00;;;8.36;93.41
17855;BME280;9053;53.358;6.382;2023-02-13T04:52:14;103733.84;;;8.37;93.44
17855;BME280;9053;53.358;6.382;2023-02-13T04:54:43;103726.28;;;8.40;93.32
17855;BME280;9053;53.358;6.382;2023-02-13T04:57:16;103730.44;;;8.38;93.40
17855;BME280;9053;53.358;6.382;2023-02-13T04:59:46;103725.19;;;8.38;93.39
17855;BME280;9053;53.358;6.382;2023-02-13T05:02:15;103727.00;;;8.39;93.33
17855;BME280;9053;53.358;6.382;2023-02-13T05:04:45;103713.78;;;8.37;93.34
17855;BME280;9053;53.358;6.382;2023-02-13T05:07:15;103715.50;;;8.37;93.21
17855;BME280;9053;53.358;6.382;2023-02-13T05:09:45;103715.34;;;8.35;93.26
17855;BME280;9053;53.358;6.382;2023-02-13T05:12:17;103719.78;;;8.36;93.19
17855;BME280;9053;53.358;6.382;2023-02-13T05:14:47;103721.50;;;8.36;93.19
17855;BME280;9053;53.358;6.382;2023-02-13T05:17:17;103724.28;;;8.37;93.05
17855;BME280;9053;53.358;6.382;2023-02-13T05:19:47;103726.28;;;8.40;93.11
17855;BME280;9053;53.358;6.382;2023-02-13T05:22:17;103726.28;;;8.40;93.07
17855;BME280;9053;53.358;6.382;2023-02-13T05:24:59;103725.50;;;8.41;93.05
17855;BME280;9053;53.358;6.382;2023-02-13T05:27:31;103724.59;;;8.40;93.03
17855;BME280;9053;53.358;6.382;2023-02-13T05:30:01;103735.69;;;8.38;93.00
17855;BME280;9053;53.358;6.382;2023-02-13T05:32:31;103734.63;;;8.36;92.98
17855;BME280;9053;53.358;6.382;2023-02-13T05:35:01;103737.88;;;8.33;92.94
17855;BME280;9053;53.358;6.382;2023-02-13T05:37:31;103730.16;;;8.35;92.97
17855;BME280;9053;53.358;6.382;2023-02-13T05:40:00;103739.88;;;8.36;92.95
17855;BME280;9053;53.358;6.382;2023-02-13T05:42:33;103747.72;;;8.36;92.96
17855;BME280;9053;53.358;6.382;2023-02-13T05:45:03;103734.50;;;8.34;92.96
17855;BME280;9053;53.358;6.382;2023-02-13T05:47:33;103744.84;;;8.33;92.91
17855;BME280;9053;53.358;6.382;2023-02-13T05:50:04;103746.56;;;8.32;92.98
17855;BME280;9053;53.358;6.382;2023-02-13T05:52:34;103743.78;;;8.31;92.90
17855;BME280;9053;53.358;6.382;2023-02-13T05:55:05;103747.19;;;8.30;92.86
17855;BME280;9053;53.358;6.382;2023-02-13T05:57:37;103751.53;;;8.29;92.91
17855;BME280;9053;53.358;6.382;2023-02-13T06:00:09;103750.47;;;8.27;93.00
17855;BME280;9053;53.358;6.382;2023-02-13T06:02:39;103762.78;;;8.28;93.02
17855;BME280;9053;53.358;6.382;2023-02-13T06:05:09;103763.59;;;8.27;93.00
17855;BME280;9053;53.358;6.382;2023-02-13T06:07:38;103760.97;;;8.27;93.17
17855;BME280;9053;53.358;6.382;2023-02-13T06:10:09;103761.88;;;8.28;93.18
17855;BME280;9053;53.358;6.382;2023-02-13T06:12:41;103765.56;;;8.30;93.25
17855;BME280;9053;53.358;6.382;2023-02-13T06:15:11;103762.03;;;8.29;93.29
17855;BME280;9053;53.358;6.382;2023-02-13T06:17:41;103756.78;;;8.29;93.42
17855;BME280;9053;53.358;6.382;2023-02-13T06:20:11;103765.56;;;8.30;93.35
17855;BME280;9053;53.358;6.382;2023-02-13T06:22:41;103770.00;;;8.31;93.45
17855;BME280;9053;53.358;6.382;2023-02-13T06:25:11;103773.44;;;8.30;93.51
17855;BME280;9053;53.358;6.382;2023-02-13T06:27:43;103777.13;;;8.32;93.64
17855;BME280;9053;53.358;6.382;2023-02-13T06:30:14;103777.88;;;8.31;93.60
17855;BME280;9053;53.358;6.382;2023-02-13T06:32:46;103779.72;;;8.32;93.75
17855;BME280;9053;53.358;6.382;2023-02-13T06:35:16;103775.25;;;8.31;93.88
17855;BME280;9053;53.358;6.382;2023-02-13T06:37:46;103778.03;;;8.32;93.95
17855;BME280;9053;53.358;6.382;2023-02-13T06:40:16;103782.34;;;8.32;93.95
17855;BME280;9053;53.358;6.382;2023-02-13T06:42:48;103783.91;;;8.30;94.02
17855;BME280;9053;53.358;6.382;2023-02-13T06:45:18;103780.88;;;8.25;94.03
17855;BME280;9053;53.358;6.382;2023-02-13T06:47:48;103781.53;;;8.22;94.05
17855;BME280;9053;53.358;6.382;2023-02-13T06:50:18;103783.97;;;8.21;94.12
17855;BME280;9053;53.358;6.382;2023-02-13T06:52:49;103791.09;;;8.22;94.23
17855;BME280;9053;53.358;6.382;2023-02-13T06:55:20;103793.56;;;8.20;94.25
17855;BME280;9053;53.358;6.382;2023-02-13T06:57:52;103786.19;;;8.16;94.25
17855;BME280;9053;53.358;6.382;2023-02-13T07:00:22;103792.72;;;8.11;94.24
17855;BME280;9053;53.358;6.382;2023-02-13T07:02:52;103795.28;;;8.01;94.22
17855;BME280;9053;53.358;6.382;2023-02-13T07:05:22;103797.50;;;7.96;94.25
17855;BME280;9053;53.358;6.382;2023-02-13T07:07:52;103799.69;;;7.92;94.34
17855;BME280;9053;53.358;6.382;2023-02-13T07:10:23;103797.84;;;7.91;94.28
17855;BME280;9053;53.358;6.382;2023-02-13T07:12:55;103803.41;;;7.94;94.45
17855;BME280;9053;53.358;6.382;2023-02-13T07:15:32;103800.91;;;7.95;94.62
17855;BME280;9053;53.358;6.382;2023-02-13T07:18:03;103801.16;;;7.98;94.74
17855;BME280;9053;53.358;6.382;2023-02-13T07:20:33;103800.53;;;8.01;94.74
17855;BME280;9053;53.358;6.382;2023-02-13T07:23:04;103789.28;;;8.02;94.79
17855;BME280;9053;53.358;6.382;2023-02-13T07:25:34;103791.91;;;8.02;94.86
17855;BME280;9053;53.358;6.382;2023-02-13T07:28:08;103792.28;;;7.96;94.95
17855;BME280;9053;53.358;6.382;2023-02-13T07:30:39;103788.44;;;7.93;94.94
17855;BME280;9053;53.358;6.382;2023-02-13T07:33:09;103794.75;;;7.95;95.08
17855;BME280;9053;53.358;6.382;2023-02-13T07:35:45;103791.47;;;7.97;95.08
17855;BME280;9053;53.358;6.382;2023-02-13T07:38:15;103791.63;;;7.99;95.20
17855;BME280;9053;53.358;6.382;2023-02-13T07:40:45;103794.75;;;7.95;95.26
17855;BME280;9053;53.358;6.382;2023-02-13T07:43:18;103791.56;;;7.89;95.27
17855;BME280;9053;53.358;6.382;2023-02-13T07:45:48;103793.88;;;7.86;95.38
17855;BME280;9053;53.358;6.382;2023-02-13T07:48:21;103791.13;;;7.84;95.41
17855;BME280;9053;53.358;6.382;2023-02-13T07:50:53;103798.06;;;7.84;95.52
17855;BME280;9053;53.358;6.382;2023-02-13T07:53:23;103793.44;;;7.81;95.56
17855;BME280;9053;53.358;6.382;2023-02-13T07:55:53;103792.63;;;7.72;95.60
17855;BME280;9053;53.358;6.382;2023-02-13T07:58:26;103804.22;;;7.65;95.59
17855;BME280;9053;53.358;6.382;2023-02-13T08:00:56;103807.47;;;7.63;95.62
17855;BME280;9053;53.358;6.382;2023-02-13T08:03:26;103801.47;;;7.64;95.72
17855;BME280;9053;53.358;6.382;2023-02-13T08:05:55;103814.06;;;7.68;95.81
17855;BME280;9053;53.358;6.382;2023-02-13T08:08:25;103818.03;;;7.73;95.97
17855;BME280;9053;53.358;6.382;2023-02-13T08:10:56;103815.06;;;7.78;96.14
17855;BME280;9053;53.358;6.382;2023-02-13T08:13:41;103811.31;;;7.85;96.20
17855;BME280;9053;53.358;6.382;2023-02-13T08:16:11;103811.75;;;7.90;96.33
17855;BME280;9053;53.358;6.382;2023-02-13T08:18:41;103818.31;;;7.95;96.39
17855;BME280;9053;53.358;6.382;2023-02-13T08:21:11;103816.25;;;8.01;96.51
17855;BME280;9053;53.358;6.382;2023-02-13T08:23:41;103818.38;;;8.05;96.70
17855;BME280;9053;53.358;6.382;2023-02-13T08:26:11;103813.41;;;8.08;96.67
17855;BME280;9053;53.358;6.382;2023-02-13T08:28:43;103811.88;;;8.10;96.85
17855;BME280;9053;53.358;6.382;2023-02-13T08:31:13;103818.28;;;8.14;96.91
17855;BME280;9053;53.358;6.382;2023-02-13T08:33:43;103814.91;;;8.15;97.08
17855;BME280;9053;53.358;6.382;2023-02-13T08:36:13;103810.84;;;8.18;97.08
17855;BME280;9053;53.358;6.382;2023-02-13T08:38:43;103806.66;;;8.20;97.14
17855;BME280;9053;53.358;6.382;2023-02-13T08:41:13;103820.34;;;8.27;97.25
17855;BME280;9053;53.358;6.382;2023-02-13T08:43:47;103816.72;;;8.35;97.27
17855;BME280;9053;53.358;6.382;2023-02-13T08:46:16;103819.19;;;8.33;97.38
17855;BME280;9053;53.358;6.382;2023-02-13T08:48:46;103819.84;;;8.31;97.38
17855;BME280;9053;53.358;6.382;2023-02-13T08:51:16;103821.28;;;8.27;97.38
17855;BME280;9053;53.358;6.382;2023-02-13T08:53:46;103814.81;;;8.23;97.40
17855;BME280;9053;53.358;6.382;2023-02-13T08:56:16;103814.53;;;8.20;97.40
17855;BME280;9053;53.358;6.382;2023-02-13T08:58:49;103814.53;;;8.20;97.40
17855;BME280;9053;53.358;6.382;2023-02-13T09:01:20;103821.34;;;8.18;97.37
17855;BME280;9053;53.358;6.382;2023-02-13T09:03:50;103827.88;;;8.13;97.28
17855;BME280;9053;53.358;6.382;2023-02-13T09:06:20;103828.50;;;8.11;97.30
17855;BME280;9053;53.358;6.382;2023-02-13T09:08:52;103827.88;;;8.13;97.27
17855;BME280;9053;53.358;6.382;2023-02-13T09:11:22;103824.75;;;8.17;97.29
17855;BME280;9053;53.358;6.382;2023-02-13T09:13:54;103820.16;;;8.15;97.22
17855;BME280;9053;53.358;6.382;2023-02-13T09:16:25;103819.72;;;8.10;97.15
17855;BME280;9053;53.358;6.382;2023-02-13T09:18:55;103820.22;;;8.06;97.12
17855;BME280;9053;53.358;6.382;2023-02-13T09:21:25;103820.00;;;8.13;97.22
17855;BME280;9053;53.358;6.382;2023-02-13T09:23:54;103824.75;;;8.17;97.29
17855;BME280;9053;53.358;6.382;2023-02-13T09:26:24;103815.03;;;8.16;97.31
17855;BME280;9053;53.358;6.382;2023-02-13T09:28:57;103826.31;;;8.15;97.27
17855;BME280;9053;53.358;6.382;2023-02-13T09:31:26;103829.72;;;8.14;97.29
17855;BME280;9053;53.358;6.382;2023-02-13T09:33:56;103823.91;;;8.08;97.25
17855;BME280;9053;53.358;6.382;2023-02-13T09:36:26;103818.53;;;8.07;97.24
17855;BME280;9053;53.358;6.382;2023-02-13T09:38:56;103813.00;;;8.03;97.19
17855;BME280;9053;53.358;6.382;2023-02-13T09:41:28;103814.44;;;8.00;97.13
17855;BME280;9053;53.358;6.382;2023-02-13T09:44:05;103812.88;;;8.02;97.18
17855;BME280;9053;53.358;6.382;2023-02-13T09:46:39;103817.59;;;8.06;97.18
17855;BME280;9053;53.358;6.382;2023-02-13T09:49:12;103806.47;;;8.09;97.31
17855;BME280;9053;53.358;6.382;2023-02-13T09:51:46;103809.72;;;8.06;97.22
17855;BME280;9053;53.358;6.382;2023-02-13T09:54:19;103811.31;;;8.04;97.25
17855;BME280;9053;53.358;6.382;2023-02-13T09:56:56;103811.00;;;8.01;97.36
17855;BME280;9053;53.358;6.382;2023-02-13T09:59:41;103818.13;;;8.02;97.20
17855;BME280;9053;53.358;6.382;2023-02-13T10:02:35;103815.50;;;8.02;97.25
17855;BME280;9053;53.358;6.382;2023-02-13T10:05:18;103818.22;;;8.03;97.16
17855;BME280;9053;53.358;6.382;2023-02-13T10:07:57;103814.97;;;8.06;97.12
17855;BME280;9053;53.358;6.382;2023-02-13T10:10:34;103810.38;;;8.03;97.05
17855;BME280;9053;53.358;6.382;2023-02-13T10:13:18;103815.34;;;8.00;97.01
17855;BME280;9053;53.358;6.382;2023-02-13T10:16:00;103811.25;;;7.94;96.90
17855;BME280;9053;53.358;6.382;2023-02-13T10:18:40;103812.66;;;7.90;96.88
17855;BME280;9053;53.358;6.382;2023-02-13T10:21:13;103814.84;;;7.86;96.80
17855;BME280;9053;53.358;6.382;2023-02-13T10:23:45;103821.78;;;7.85;96.69
17855;BME280;9053;53.358;6.382;2023-02-13T10:26:19;103822.06;;;7.88;96.70
17855;BME280;9053;53.358;6.382;2023-02-13T10:28:54;103823.28;;;7.92;96.75
17855;BME280;9053;53.358;6.382;2023-02-13T10:31:43;103820.66;;;7.92;96.65
17855;BME280;9053;53.358;6.382;2023-02-13T10:34:16;103815.16;;;7.89;96.66
17855;BME280;9053;53.358;6.382;2023-02-13T10:36:50;103818.53;;;7.88;96.53
17855;BME280;9053;53.358;6.382;2023-02-13T10:39:22;103823.28;;;7.92;96.52
17855;BME280;9053;53.358;6.382;2023-02-13T10:41:53;103824.91;;;8.00;96.52
17855;BME280;9053;53.358;6.382;2023-02-13T10:44:33;103822.72;;;8.05;96.45
17855;BME280;9053;53.358;6.382;2023-02-13T10:47:18;103823.63;;;8.05;96.39
17855;BME280;9053;53.358;6.382;2023-02-13T10:50:11;103815.75;;;8.05;96.42
17855;BME280;9053;53.358;6.382;2023-02-13T10:52:48;103821.16;;;8.07;96.32
17855;BME280;9053;53.358;6.382;2023-02-13T10:55:44;103825.25;;;8.13;96.34
17855;BME280;9053;53.358;6.382;2023-02-13T10:58:19;103813.69;;;8.11;96.25
17855;BME280;9053;53.358;6.382;2023-02-13T11:00:55;103811.06;;;8.11;96.09
17855;BME280;9053;53.358;6.382;2023-02-13T11:03:29;103806.34;;;8.07;96.09
17855;BME280;9053;53.358;6.382;2023-02-13T11:05:59;103805.72;;;8.10;95.96
17855;BME280;9053;53.358;6.382;2023-02-13T11:08:38;103805.81;;;8.11;95.82
17855;BME280;9053;53.358;6.382;2023-02-13T11:11:30;103803.19;;;8.11;95.68
17855;BME280;9053;53.358;6.382;2023-02-13T11:14:12;103804.91;;;8.11;95.60
17855;BME280;9053;53.358;6.382;2023-02-13T11:16:49;103805.06;;;8.12;95.42
17855;BME280;9053;53.358;6.382;2023-02-13T11:19:32;103805.34;;;8.15;95.38
17855;BME280;9053;53.358;6.382;2023-02-13T11:22:04;103807.53;;;8.11;95.26
17855;BME280;9053;53.358;6.382;2023-02-13T11:24:35;103801.09;;;8.07;95.19
17855;BME280;9053;53.358;6.382;2023-02-13T11:27:07;103797.41;;;8.05;95.07
17855;BME280;9053;53.358;6.382;2023-02-13T11:29:52;103794.94;;;8.07;95.10
17855;BME280;9053;53.358;6.382;2023-02-13T11:32:24;103790.72;;;8.09;94.91
17855;BME280;9053;53.358;6.382;2023-02-13T11:34:57;103791.16;;;8.13;94.97
17855;BME280;9053;53.358;6.382;2023-02-13T11:37:44;103784.34;;;8.15;95.03
17855;BME280;9053;53.358;6.382;2023-02-13T11:40:30;103782.81;;;8.17;94.93
17855;BME280;9053;53.358;6.382;2023-02-13T11:43:00;103785.56;;;8.19;94.96
17855;BME280;9053;53.358;6.382;2023-02-13T11:45:30;103771.81;;;8.21;94.97
17855;BME280;9053;53.358;6.382;2023-02-13T11:48:08;103781.78;;;8.26;94.88
17855;BME280;9053;53.358;6.382;2023-02-13T11:50:40;103774.19;;;8.29;94.91
17855;BME280;9053;53.358;6.382;2023-02-13T11:53:17;103767.53;;;8.32;94.90
17855;BME280;9053;53.358;6.382;2023-02-13T11:56:01;103765.03;;;8.34;95.00
17855;BME280;9053;53.358;6.382;2023-02-13T11:58:31;103770.56;;;8.37;94.84
17855;BME280;9053;53.358;6.382;2023-02-13T12:01:24;103767.16;;;8.38;94.95
17855;BME280;9053;53.358;6.382;2023-02-13T12:04:02;103758.09;;;8.34;94.96
17855;BME280;9053;53.358;6.382;2023-02-13T12:06:35;103756.25;;;8.33;94.81
17855;BME280;9053;53.358;6.382;2023-02-13T12:09:13;103753.22;;;8.29;94.82
17855;BME280;9053;53.358;6.382;2023-02-13T12:11:47;103749.81;;;8.30;94.79
17855;BME280;9053;53.358;6.382;2023-02-13T12:14:20;103751.00;;;8.33;94.83
17855;BME280;9053;53.358;6.382;2023-02-13T12:16:53;103747.63;;;8.34;94.92
17855;BME280;9053;53.358;6.382;2023-02-13T12:19:29;103742.22;;;8.33;94.74
17855;BME280;9053;53.358;6.382;2023-02-13T12:25:25;103729.03;;;8.41;94.95
17855;BME280;9053;53.358;6.382;2023-02-13T12:28:06;103722.22;;;8.43;94.90
17855;BME280;9053;53.358;6.382;2023-02-13T12:30:55;103726.41;;;8.41;94.86
17855;BME280;9053;53.358;6.382;2023-02-13T12:36:43;103721.47;;;8.44;94.90
17855;BME280;9053;53.358;6.382;2023-02-13T12:39:24;103720.66;;;8.45;94.77
17855;BME280;9053;53.358;6.382;2023-02-13T12:42:09;103721.56;;;8.46;94.72
17855;BME280;9053;53.358;6.382;2023-02-13T12:44:59;103715.25;;;8.44;94.63
17855;BME280;9053;53.358;6.382;2023-02-13T12:47:34;103719.75;;;8.45;94.57
17855;BME280;9053;53.358;6.382;2023-02-13T12:50:30;103718.19;;;8.47;94.51
17855;BME280;9053;53.358;6.382;2023-02-13T12:53:14;103714.91;;;8.50;94.43
17855;BME280;9053;53.358;6.382;2023-02-13T12:56:14;103717.28;;;8.57;94.46
17855;BME280;9053;53.358;6.382;2023-02-13T12:58:58;103714.13;;;8.61;94.48
17855;BME280;9053;53.358;6.382;2023-02-13T13:02:03;103703.00;;;8.63;94.33
17855;BME280;9053;53.358;6.382;2023-02-13T13:04:49;103698.00;;;8.66;94.41
17855;BME280;9053;53.358;6.382;2023-02-13T13:07:35;103695.53;;;8.68;94.36
17855;BME280;9053;53.358;6.382;2023-02-13T13:10:38;103693.97;;;8.70;94.31
17855;BME280;9053;53.358;6.382;2023-02-13T13:13:24;103691.44;;;8.72;94.33
17855;BME280;9053;53.358;6.382;2023-02-13T13:16:07;103695.13;;;8.74;94.37
17855;BME280;9053;53.358;6.382;2023-02-13T13:18:51;103690.53;;;8.71;94.21
17855;BME280;9053;53.358;6.382;2023-02-13T13:21:32;103694.22;;;8.73;94.26
17855;BME280;9053;53.358;6.382;2023-02-13T13:24:08;103693.31;;;8.73;94.13
17855;BME280;9053;53.358;6.382;2023-02-13T13:26:44;103694.22;;;8.73;94.13
17855;BME280;9053;53.358;6.382;2023-02-13T13:29:20;103695.53;;;8.68;94.08
17855;BME280;9053;53.358;6.382;2023-02-13T13:31:56;103690.00;;;8.65;94.10
17855;BME280;9053;53.358;6.382;2023-02-13T13:34:30;103682.91;;;8.64;94.03
17855;BME280;9053;53.358;6.382;2023-02-13T13:37:05;103684.88;;;8.66;94.04
17855;BME280;9053;53.358;6.382;2023-02-13T13:39:45;103685.03;;;8.68;93.99
17855;BME280;9053;53.358;6.382;2023-02-13T13:42:26;103674.03;;;8.72;94.04
17855;BME280;9053;53.358;6.382;2023-02-13T13:45:19;103669.81;;;8.74;94.16
17855;BME280;9053;53.358;6.382;2023-02-13T13:48:08;103658.00;;;8.79;94.13
17855;BME280;9053;53.358;6.382;2023-02-13T13:50:45;103659.44;;;8.86;94.18
17855;BME280;9053;53.358;6.382;2023-02-13T13:53:16;103658.78;;;8.88;94.33
17855;BME280;9053;53.358;6.382;2023-02-13T13:56:03;103661.81;;;8.93;94.35
17855;BME280;9053;53.358;6.382;2023-02-13T13:58:39;103653.13;;;8.94;94.45
17855;BME280;9053;53.358;6.382;2023-02-13T14:01:24;103653.03;;;8.93;94.42
17855;BME280;9053;53.358;6.382;2023-02-13T14:03:59;103651.72;;;8.87;94.45
17855;BME280;9053;53.358;6.382;2023-02-13T14:09:41;103657.09;;;8.89;94.40